createdAt,value
2023-03-30T00:01:35.440Z,9.98
2023-03-30T00:04:07.008Z,9.99
2023-03-30T00:06:39.379Z,9.99
2023-03-30T00:09:12.862Z,9.99
2023-03-30T00:11:43.831Z,10.04
2023-03-30T00:14:18.048Z,10.07
2023-03-30T00:16:48.349Z,10.06
2023-03-30T00:19:19.121Z,10.07
2023-03-30T00:21:50.052Z,10.06
2023-03-30T00:24:23.191Z,10.07
2023-03-30T00:26:53.892Z,10.07
2023-03-30T00:29:24.395Z,10.08
2023-03-30T00:31:55.577Z,10.01
2023-03-30T00:34:27.809Z,10.00
2023-03-30T00:36:58.507Z,9.95
2023-03-30T00:39:31.703Z,9.90
2023-03-30T00:42:02.192Z,9.77
2023-03-30T00:45:02.887Z,9.80
2023-03-30T00:47:33.749Z,9.79
2023-03-30T00:50:04.872Z,9.77
2023-03-30T00:52:37.433Z,9.76
2023-03-30T00:55:12.853Z,9.74
2023-03-30T00:57:47.025Z,9.58
2023-03-30T01:00:18.844Z,9.65
2023-03-30T01:02:56.162Z,9.71
2023-03-30T01:05:29.687Z,9.70
2023-03-30T01:08:02.192Z,9.72
2023-03-30T01:10:35.764Z,9.58
2023-03-30T01:13:07.661Z,9.64
2023-03-30T01:15:43.132Z,9.78
2023-03-30T01:18:27.812Z,9.85
2023-03-30T01:21:27.870Z,10.00
2023-03-30T01:24:42.950Z,10.14
2023-03-30T01:27:31.618Z,10.24
2023-03-30T01:30:25.181Z,10.31
2023-03-30T01:33:11.924Z,10.33
2023-03-30T01:36:17.985Z,10.23
2023-03-30T01:39:23.131Z,10.27
2023-03-30T01:42:01.748Z,10.11
2023-03-30T01:44:40.991Z,10.20
2023-03-30T01:47:20.362Z,10.23
2023-03-30T01:50:01.181Z,10.20
2023-03-30T01:52:41.476Z,10.26
2023-03-30T01:55:19.727Z,10.22
2023-03-30T01:57:56.287Z,10.25
2023-03-30T02:00:28.829Z,10.19
2023-03-30T02:03:05.758Z,10.21
2023-03-30T02:05:38.208Z,10.15
2023-03-30T02:08:13.820Z,10.16
2023-03-30T02:10:48.909Z,10.13
2023-03-30T02:13:20.919Z,10.14
2023-03-30T02:15:56.264Z,10.17
2023-03-30T02:18:27.279Z,10.24
2023-03-30T02:20:59.562Z,10.27
2023-03-30T02:23:38.423Z,10.27
2023-03-30T02:26:11.981Z,10.32
2023-03-30T02:28:42.958Z,10.31
2023-03-30T02:31:17.185Z,10.34
2023-03-30T02:34:03.930Z,10.35
2023-03-30T02:36:49.892Z,10.32
2023-03-30T02:39:31.010Z,10.37
2023-03-30T02:42:27.307Z,10.41
2023-03-30T02:45:12.251Z,10.48
2023-03-30T02:47:52.236Z,10.54
2023-03-30T02:50:33.850Z,10.58
2023-03-30T02:53:18.007Z,10.61
2023-03-30T02:56:00.820Z,10.59
2023-03-30T02:58:48.377Z,10.68
2023-03-30T03:01:28.589Z,10.70
2023-03-30T03:04:11.150Z,10.74
2023-03-30T03:06:53.104Z,10.70
2023-03-30T03:09:25.156Z,10.78
2023-03-30T03:11:56.158Z,10.78
2023-03-30T03:14:32.102Z,10.77
2023-03-30T03:17:02.919Z,10.83
2023-03-30T03:19:38.366Z,10.86
2023-03-30T03:22:09.234Z,10.92
2023-03-30T03:24:41.597Z,10.96
2023-03-30T03:27:34.180Z,11.03
2023-03-30T03:30:33.765Z,10.88
2023-03-30T03:33:11.524Z,11.04
2023-03-30T03:35:46.038Z,11.08
2023-03-30T03:38:17.353Z,11.13
2023-03-30T03:40:52.840Z,11.15
2023-03-30T03:43:23.627Z,11.20
2023-03-30T03:45:56.907Z,11.25
2023-03-30T03:48:28.253Z,11.26
2023-03-30T03:51:01.054Z,11.31
2023-03-30T03:53:36.479Z,11.32
2023-03-30T03:56:11.949Z,11.32
2023-03-30T03:58:42.643Z,11.30
2023-03-30T04:01:16.329Z,11.28
2023-03-30T04:03:46.965Z,11.30
2023-03-30T04:06:17.473Z,11.36
2023-03-30T04:08:48.125Z,11.40
2023-03-30T04:11:41.773Z,11.44
2023-03-30T04:14:31.040Z,11.48
2023-03-30T04:17:24.025Z,11.46
2023-03-30T04:20:06.096Z,11.51
2023-03-30T04:22:53.533Z,11.51
2023-03-30T04:25:58.410Z,11.50
2023-03-30T04:28:48.012Z,11.48
2023-03-30T04:31:35.091Z,11.48
2023-03-30T04:34:31.363Z,11.42
2023-03-30T04:37:30.420Z,11.43
2023-03-30T04:40:20.150Z,11.39
2023-03-30T04:43:14.669Z,11.25
2023-03-30T04:46:05.404Z,11.53
2023-03-30T04:49:01.952Z,11.56
2023-03-30T04:51:44.222Z,11.60
2023-03-30T04:54:36.065Z,11.61
2023-03-30T04:57:41.913Z,11.64
2023-03-30T05:00:31.938Z,11.71
2023-03-30T05:03:24.935Z,11.77
2023-03-30T05:06:22.248Z,11.79
2023-03-30T05:09:14.604Z,11.81
2023-03-30T05:12:08.672Z,11.84
2023-03-30T05:14:51.986Z,11.88
2023-03-30T05:17:51.903Z,11.89
2023-03-30T05:20:41.351Z,11.90
2023-03-30T05:23:35.268Z,11.89
2023-03-30T05:26:44.039Z,11.83
2023-03-30T05:29:33.115Z,11.81
2023-03-30T05:32:39.331Z,11.80
2023-03-30T05:35:34.573Z,11.80
2023-03-30T05:38:19.315Z,11.88
2023-03-30T05:41:14.311Z,11.94
2023-03-30T05:44:21.879Z,12.07
2023-03-30T05:47:12.086Z,12.19
2023-03-30T05:50:12.011Z,12.30
2023-03-30T05:52:56.793Z,12.30
2023-03-30T05:55:42.484Z,12.36
2023-03-30T05:58:39.786Z,12.45
2023-03-30T06:01:26.926Z,12.60
2023-03-30T06:04:00.689Z,12.72
2023-03-30T06:06:32.549Z,13.09
2023-03-30T06:09:04.487Z,13.27
2023-03-30T06:11:37.283Z,13.36
2023-03-30T06:14:23.732Z,13.45
2023-03-30T06:17:17.495Z,13.53
2023-03-30T06:19:49.281Z,13.46
2023-03-30T06:22:22.081Z,13.51
2023-03-30T06:25:08.064Z,13.48
2023-03-30T06:27:43.322Z,13.50
2023-03-30T06:30:18.314Z,13.57
2023-03-30T06:32:56.765Z,13.81
2023-03-30T06:35:29.619Z,13.96
2023-03-30T06:38:01.541Z,14.00
2023-03-30T06:40:33.423Z,14.15
2023-03-30T06:43:04.092Z,14.16
2023-03-30T06:45:44.102Z,14.13
2023-03-30T06:48:17.628Z,14.07
2023-03-30T06:50:49.033Z,14.00
2023-03-30T06:53:26.711Z,13.96
2023-03-30T06:55:59.851Z,13.81
2023-03-30T06:58:34.588Z,13.90
2023-03-30T07:01:13.470Z,13.84
2023-03-30T07:04:10.936Z,13.95
2023-03-30T07:07:01.696Z,13.99
2023-03-30T07:09:32.837Z,14.00
2023-03-30T07:12:03.924Z,14.05
2023-03-30T07:14:35.216Z,14.02
2023-03-30T07:17:08.044Z,14.09
2023-03-30T07:19:41.492Z,13.98
2023-03-30T07:22:12.882Z,14.19
2023-03-30T07:24:45.103Z,14.27
2023-03-30T07:27:16.449Z,14.34
2023-03-30T07:29:47.685Z,14.41
2023-03-30T07:32:20.037Z,14.47
2023-03-30T07:34:53.685Z,14.52
2023-03-30T07:37:24.983Z,14.61
2023-03-30T07:39:57.110Z,14.68
2023-03-30T07:42:27.988Z,14.63
2023-03-30T07:44:58.863Z,14.85
2023-03-30T07:47:29.718Z,14.96
2023-03-30T07:50:03.008Z,15.06
2023-03-30T07:52:34.409Z,15.15
2023-03-30T07:55:07.903Z,15.20
2023-03-30T07:57:47.373Z,15.21
2023-03-30T08:00:19.053Z,15.29
2023-03-30T08:03:08.513Z,15.42
2023-03-30T08:05:42.455Z,15.50
2023-03-30T08:08:23.001Z,15.56
2023-03-30T08:10:53.866Z,15.66
2023-03-30T08:13:24.875Z,15.71
2023-03-30T08:15:56.109Z,15.73
2023-03-30T08:18:28.991Z,15.76
2023-03-30T08:21:02.588Z,15.73
2023-03-30T08:23:33.771Z,15.86
2023-03-30T08:26:04.301Z,15.82
2023-03-30T08:28:35.176Z,15.72
2023-03-30T08:31:08.810Z,15.68
2023-03-30T08:33:39.757Z,15.68
2023-03-30T08:36:13.165Z,15.78
2023-03-30T08:38:45.422Z,15.93
2023-03-30T08:41:49.800Z,16.06
2023-03-30T08:44:31.942Z,16.06
2023-03-30T08:47:05.856Z,16.10
2023-03-30T08:49:41.928Z,16.22
2023-03-30T08:52:20.979Z,16.21
2023-03-30T08:54:52.463Z,16.07
2023-03-30T08:57:40.028Z,15.99
2023-03-30T09:00:23.164Z,16.02
2023-03-30T09:02:57.557Z,16.03
2023-03-30T09:05:35.230Z,16.23
2023-03-30T09:08:17.144Z,16.44
2023-03-30T09:10:52.690Z,16.57
2023-03-30T09:13:27.369Z,16.70
2023-03-30T09:16:04.014Z,16.80
2023-03-30T09:18:36.130Z,16.83
2023-03-30T09:21:09.099Z,16.78
2023-03-30T09:23:43.325Z,16.86
2023-03-30T09:26:20.685Z,17.16
2023-03-30T09:28:57.633Z,17.55
2023-03-30T09:31:34.238Z,17.65
2023-03-30T09:34:09.510Z,17.36
2023-03-30T09:36:47.418Z,16.85
2023-03-30T09:39:23.694Z,16.65
2023-03-30T09:42:11.689Z,16.34
2023-03-30T09:44:49.045Z,16.10
2023-03-30T09:47:27.084Z,15.82
2023-03-30T09:50:02.568Z,15.53
2023-03-30T09:52:37.280Z,15.29
2023-03-30T09:55:31.370Z,15.02
2023-03-30T09:58:15.185Z,14.74
2023-03-30T10:00:45.984Z,14.59
2023-03-30T10:03:24.397Z,14.59
2023-03-30T10:06:06.094Z,14.68
2023-03-30T10:08:46.247Z,14.91
2023-03-30T10:11:24.037Z,15.15
2023-03-30T10:13:55.250Z,15.25
2023-03-30T10:16:29.785Z,15.22
2023-03-30T10:19:03.964Z,15.29
2023-03-30T10:21:35.093Z,15.48
2023-03-30T10:24:08.457Z,15.67
2023-03-30T10:26:44.407Z,15.80
2023-03-30T10:29:16.750Z,15.85
2023-03-30T10:31:50.148Z,16.00
2023-03-30T10:34:23.875Z,16.25
2023-03-30T10:36:56.571Z,16.25
2023-03-30T10:39:32.456Z,15.90
2023-03-30T10:42:09.545Z,15.46
2023-03-30T10:44:44.524Z,14.61
2023-03-30T10:47:29.812Z,13.93
2023-03-30T10:50:10.519Z,13.37
2023-03-30T10:52:59.001Z,13.08
2023-03-30T10:55:37.103Z,12.88
2023-03-30T10:58:22.816Z,12.75
2023-03-30T11:01:14.706Z,12.73
2023-03-30T11:03:50.428Z,12.79
2023-03-30T11:06:25.085Z,12.92
2023-03-30T11:08:58.005Z,13.19
2023-03-30T11:11:36.779Z,13.38
2023-03-30T11:14:16.686Z,13.57
2023-03-30T11:16:53.804Z,13.83
2023-03-30T11:19:28.092Z,14.13
2023-03-30T11:22:06.644Z,14.43
2023-03-30T11:24:38.343Z,14.56
2023-03-30T11:27:17.419Z,14.61
2023-03-30T11:29:56.850Z,14.57
2023-03-30T11:32:36.055Z,14.73
2023-03-30T11:35:15.319Z,14.85
2023-03-30T11:37:52.868Z,14.88
2023-03-30T11:40:27.507Z,14.98
2023-03-30T11:42:58.682Z,15.02
2023-03-30T11:45:45.905Z,15.15
2023-03-30T11:48:41.760Z,15.28
2023-03-30T11:51:23.793Z,15.40
2023-03-30T11:54:03.063Z,15.66
2023-03-30T11:56:40.382Z,15.84
2023-03-30T11:59:20.504Z,15.87
2023-03-30T12:02:08.828Z,16.12
2023-03-30T12:04:45.592Z,16.35
2023-03-30T12:07:29.902Z,16.20
2023-03-30T12:10:06.721Z,16.29
2023-03-30T12:12:42.150Z,16.37
2023-03-30T12:15:19.375Z,16.58
2023-03-30T12:17:56.834Z,16.76
2023-03-30T12:20:42.545Z,16.68
2023-03-30T12:23:24.015Z,16.69
2023-03-30T12:26:10.677Z,16.80
2023-03-30T12:31:22.668Z,16.91
2023-03-30T12:34:08.515Z,17.13
2023-03-30T12:36:41.000Z,17.11
2023-03-30T12:39:22.058Z,17.31
2023-03-30T12:41:55.346Z,17.25
2023-03-30T12:44:39.244Z,17.17
2023-03-30T12:47:34.750Z,17.32
2023-03-30T12:50:26.457Z,17.46
2023-03-30T12:53:09.362Z,17.45
2023-03-30T12:55:48.930Z,17.16
2023-03-30T12:58:52.006Z,17.03
2023-03-30T13:01:47.296Z,16.91
2023-03-30T13:04:23.720Z,16.59
2023-03-30T13:07:01.178Z,16.17
2023-03-30T13:09:34.836Z,16.03
2023-03-30T13:12:32.926Z,15.68
2023-03-30T13:15:07.130Z,15.24
2023-03-30T13:17:52.765Z,15.01
2023-03-30T13:20:29.679Z,15.07
2023-03-30T13:23:27.786Z,15.30
2023-03-30T13:26:08.497Z,15.49
2023-03-30T13:29:03.065Z,15.81
2023-03-30T13:31:57.323Z,16.15
2023-03-30T13:35:03.591Z,16.47
2023-03-30T13:38:07.770Z,16.74
2023-03-30T13:43:39.115Z,16.67
2023-03-30T13:46:17.891Z,16.31
2023-03-30T13:49:00.211Z,16.01
2023-03-30T13:51:32.772Z,15.74
2023-03-30T13:54:06.642Z,15.58
2023-03-30T13:56:42.707Z,15.61
2023-03-30T13:59:17.158Z,15.85
2023-03-30T14:01:52.939Z,16.10
2023-03-30T14:04:24.173Z,16.27
2023-03-30T14:06:54.813Z,16.29
2023-03-30T14:09:27.792Z,16.08
2023-03-30T14:12:03.074Z,15.89
2023-03-30T14:14:39.382Z,16.01
2023-03-30T14:17:18.441Z,16.25
2023-03-30T14:20:07.863Z,16.65
2023-03-30T14:22:44.454Z,16.84
2023-03-30T14:25:28.564Z,16.76
2023-03-30T14:28:06.078Z,16.71
2023-03-30T14:30:36.991Z,16.71
2023-03-30T14:33:09.838Z,16.68
2023-03-30T14:35:45.170Z,16.67
2023-03-30T14:38:19.358Z,16.70
2023-03-30T14:40:50.866Z,16.45
2023-03-30T14:43:27.464Z,16.26
2023-03-30T14:46:02.109Z,16.10
2023-03-30T14:48:35.115Z,15.85
2023-03-30T14:51:07.940Z,15.74
2023-03-30T14:53:38.829Z,15.64
2023-03-30T14:56:10.518Z,15.55
2023-03-30T14:58:44.699Z,15.53
2023-03-30T15:01:20.690Z,15.58
2023-03-30T15:03:52.162Z,15.68
2023-03-30T15:06:26.915Z,15.89
2023-03-30T15:09:04.330Z,16.15
2023-03-30T15:11:38.759Z,16.21
2023-03-30T15:14:18.964Z,16.15
2023-03-30T15:16:53.872Z,15.95
2023-03-30T15:19:32.911Z,15.91
2023-03-30T15:22:06.386Z,15.89
2023-03-30T15:24:39.676Z,15.89
2023-03-30T15:27:12.485Z,16.02
2023-03-30T15:29:47.357Z,16.07
2023-03-30T15:32:20.050Z,15.91
2023-03-30T15:35:08.623Z,15.72
2023-03-30T15:37:40.160Z,15.53
2023-03-30T15:40:34.266Z,15.37
2023-03-30T15:43:23.248Z,15.22
2023-03-30T15:45:59.382Z,14.94
2023-03-30T15:48:34.604Z,14.64
2023-03-30T15:51:10.868Z,14.13
2023-03-30T15:53:45.156Z,13.73
2023-03-30T15:56:23.353Z,13.49
2023-03-30T15:58:54.556Z,13.62
2023-03-30T16:01:41.784Z,13.98
2023-03-30T16:04:17.205Z,14.09
2023-03-30T16:06:48.211Z,14.04
2023-03-30T16:09:18.940Z,13.88
2023-03-30T16:11:50.076Z,13.79
2023-03-30T16:14:23.056Z,13.66
2023-03-30T16:16:56.213Z,13.60
2023-03-30T16:19:26.657Z,13.51
2023-03-30T16:21:57.100Z,13.46
2023-03-30T16:24:27.848Z,13.42
2023-03-30T16:26:58.429Z,13.44
2023-03-30T16:29:28.935Z,13.42
2023-03-30T16:32:02.687Z,13.49
2023-03-30T16:34:33.304Z,13.57
2023-03-30T16:37:04.340Z,13.68
2023-03-30T16:39:35.028Z,13.81
2023-03-30T16:42:06.008Z,13.87
2023-03-30T16:44:36.614Z,13.88
2023-03-30T16:47:10.193Z,13.85
2023-03-30T16:49:40.876Z,13.77
2023-03-30T16:52:11.658Z,13.73
2023-03-30T16:54:42.285Z,13.64
2023-03-30T16:57:13.556Z,13.61
2023-03-30T16:59:44.292Z,13.58
2023-03-30T17:02:19.369Z,13.55
2023-03-30T17:04:50.121Z,13.52
2023-03-30T17:07:20.758Z,13.46
2023-03-30T17:09:51.338Z,13.37
2023-03-30T17:12:21.888Z,13.28
2023-03-30T17:14:54.711Z,13.23
2023-03-30T17:17:27.964Z,13.22
2023-03-30T17:19:59.451Z,13.20
2023-03-30T17:22:30.678Z,13.20
2023-03-30T17:25:01.170Z,13.23
2023-03-30T17:27:31.729Z,13.23
2023-03-30T17:30:02.268Z,13.21
2023-03-30T17:32:35.437Z,13.22
2023-03-30T17:35:06.383Z,13.20
2023-03-30T17:37:36.888Z,13.18
2023-03-30T17:40:17.695Z,13.14
2023-03-30T17:42:48.370Z,13.13
2023-03-30T17:45:21.260Z,12.99
2023-03-30T17:47:54.606Z,12.90
2023-03-30T17:50:28.510Z,12.84
2023-03-30T17:53:00.146Z,12.83
2023-03-30T17:55:32.671Z,12.86
2023-03-30T17:58:06.278Z,12.90
2023-03-30T18:00:37.265Z,12.65
2023-03-30T18:03:10.639Z,12.90
2023-03-30T18:05:41.594Z,12.89
2023-03-30T18:08:17.570Z,12.89
2023-03-30T18:10:51.771Z,12.90
2023-03-30T18:13:23.720Z,12.90
2023-03-30T18:15:55.986Z,12.93
2023-03-30T18:18:31.732Z,12.92
2023-03-30T18:21:05.582Z,12.93
2023-03-30T18:23:37.492Z,12.91
2023-03-30T18:26:12.140Z,12.92
2023-03-30T18:28:44.553Z,12.91
2023-03-30T18:31:15.739Z,12.75
2023-03-30T18:33:51.638Z,12.89
2023-03-30T18:36:24.593Z,12.88
2023-03-30T18:38:55.293Z,12.89
2023-03-30T18:41:26.079Z,12.79
2023-03-30T18:43:56.672Z,12.85
2023-03-30T18:46:27.341Z,12.84
2023-03-30T18:49:00.566Z,12.79
2023-03-30T18:51:32.540Z,12.79
2023-03-30T18:54:03.277Z,12.70
2023-03-30T18:56:34.054Z,12.60
2023-03-30T18:59:06.533Z,12.55
2023-03-30T19:01:38.300Z,12.58
2023-03-30T19:04:12.128Z,12.55
2023-03-30T19:06:44.534Z,12.51
2023-03-30T19:09:15.076Z,12.50
2023-03-30T19:11:45.586Z,12.48
2023-03-30T19:14:16.204Z,12.46
2023-03-30T19:16:46.845Z,12.38
2023-03-30T19:19:19.991Z,12.34
2023-03-30T19:21:55.126Z,12.42
2023-03-30T19:24:25.627Z,12.49
2023-03-30T19:26:56.357Z,12.51
2023-03-30T19:29:29.816Z,12.57
2023-03-30T19:32:00.382Z,12.60
2023-03-30T19:34:33.464Z,12.61
2023-03-30T19:37:03.996Z,12.56
2023-03-30T19:39:35.910Z,12.61
2023-03-30T19:42:08.788Z,12.60
2023-03-30T19:44:40.058Z,12.55
2023-03-30T19:47:10.726Z,12.58
2023-03-30T19:49:43.987Z,12.56
2023-03-30T19:52:14.600Z,12.56
2023-03-30T19:54:45.454Z,12.55
2023-03-30T19:57:16.872Z,12.57
2023-03-30T19:59:48.390Z,12.57
2023-03-30T20:02:19.398Z,12.57
2023-03-30T20:04:52.585Z,12.53
2023-03-30T20:07:24.622Z,12.54
2023-03-30T20:09:55.427Z,12.51
2023-03-30T20:12:26.430Z,12.47
2023-03-30T20:14:59.004Z,12.41
2023-03-30T20:17:30.127Z,12.27
2023-03-30T20:20:07.306Z,12.20
2023-03-30T20:22:39.040Z,12.09
2023-03-30T20:25:12.411Z,11.97
2023-03-30T20:27:43.115Z,11.92
2023-03-30T20:30:16.950Z,11.88
2023-03-30T20:33:03.946Z,11.84
2023-03-30T20:35:41.996Z,11.85
2023-03-30T20:38:12.762Z,11.91
2023-03-30T20:40:43.357Z,12.01
2023-03-30T20:43:13.981Z,12.10
2023-03-30T20:45:48.800Z,12.17
2023-03-30T20:48:26.442Z,12.16
2023-03-30T20:51:00.111Z,12.27
2023-03-30T20:53:31.693Z,12.28
2023-03-30T20:56:02.820Z,12.29
2023-03-30T20:58:33.857Z,12.30
2023-03-30T21:01:14.524Z,12.29
2023-03-30T21:03:50.174Z,12.22
2023-03-30T21:06:24.264Z,12.19
2023-03-30T21:08:55.012Z,12.12
2023-03-30T21:11:27.386Z,12.02
2023-03-30T21:13:58.590Z,11.91
2023-03-30T21:16:29.280Z,11.87
2023-03-30T21:18:59.862Z,11.76
2023-03-30T21:21:34.072Z,11.75
2023-03-30T21:24:04.617Z,11.69
2023-03-30T21:26:35.793Z,11.49
2023-03-30T21:29:06.840Z,11.66
2023-03-30T21:31:38.031Z,11.62
2023-03-30T21:34:10.854Z,11.55
2023-03-30T21:36:44.499Z,11.60
2023-03-30T21:39:15.137Z,11.60
2023-03-30T21:41:45.664Z,11.54
2023-03-30T21:44:16.535Z,11.53
2023-03-30T21:46:47.098Z,11.54
2023-03-30T21:49:17.763Z,11.50
2023-03-30T21:51:50.860Z,11.52
2023-03-30T21:54:22.162Z,11.50
2023-03-30T21:56:52.740Z,11.50
2023-03-30T21:59:23.493Z,11.55
2023-03-30T22:01:54.104Z,11.62
2023-03-30T22:04:24.755Z,11.67
2023-03-30T22:06:58.258Z,11.77
2023-03-30T22:09:28.970Z,11.80
2023-03-30T22:11:59.627Z,11.91
2023-03-30T22:14:30.215Z,11.98
2023-03-30T22:17:01.182Z,12.02
2023-03-30T22:19:32.074Z,11.98
2023-03-30T22:22:05.730Z,12.06
2023-03-30T22:24:36.506Z,12.14
2023-03-30T22:27:09.041Z,12.08
2023-03-30T22:29:39.634Z,12.05
2023-03-30T22:32:10.583Z,11.99
2023-03-30T22:34:41.297Z,11.91
2023-03-30T22:37:14.542Z,11.85
2023-03-30T22:39:45.120Z,11.79
2023-03-30T22:42:15.822Z,11.76
2023-03-30T22:44:47.083Z,11.83
2023-03-30T22:47:17.688Z,11.81
2023-03-30T22:49:50.554Z,11.90
2023-03-30T22:52:24.221Z,11.92
2023-03-30T22:54:55.032Z,11.89
2023-03-30T22:57:25.859Z,12.01
2023-03-30T22:59:56.820Z,12.03
2023-03-30T23:02:27.437Z,12.08
2023-03-30T23:04:58.104Z,12.07
2023-03-30T23:07:33.646Z,12.08
2023-03-30T23:10:04.973Z,12.08
2023-03-30T23:12:36.219Z,12.07
2023-03-30T23:15:07.512Z,12.07
2023-03-30T23:17:38.151Z,12.11
2023-03-30T23:20:11.771Z,12.16
2023-03-30T23:22:45.261Z,12.16
2023-03-30T23:25:15.908Z,12.17
2023-03-30T23:27:46.578Z,12.20
2023-03-30T23:30:18.021Z,12.23
2023-03-30T23:32:48.856Z,12.25
2023-03-30T23:35:19.826Z,12.25
2023-03-30T23:37:55.228Z,12.24
2023-03-30T23:40:25.819Z,12.21
2023-03-30T23:42:57.071Z,12.16
2023-03-30T23:45:27.894Z,12.16
2023-03-30T23:47:59.602Z,12.17
2023-03-30T23:50:30.282Z,12.17
2023-03-30T23:53:03.485Z,12.19
2023-03-30T23:55:33.953Z,12.19
2023-03-30T23:58:04.716Z,12.20
